createdAt,value
2023-07-23T00:03:01.178Z,5.20
2023-07-23T00:06:02.519Z,5.28
2023-07-23T00:09:03.869Z,5.70
2023-07-23T00:12:05.205Z,5.75
2023-07-23T00:15:06.553Z,5.30
2023-07-23T00:18:07.896Z,6.05
2023-07-23T00:21:09.245Z,7.00
2023-07-23T00:24:10.621Z,5.57
2023-07-23T00:27:12.004Z,6.65
2023-07-23T00:30:13.363Z,5.43
2023-07-23T00:33:14.725Z,5.40
2023-07-23T00:36:16.108Z,6.18
2023-07-23T00:39:17.444Z,5.60
2023-07-23T00:42:18.772Z,5.88
2023-07-23T00:45:20.144Z,6.88
2023-07-23T00:48:21.476Z,5.70
2023-07-23T00:51:22.834Z,5.63
2023-07-23T00:54:24.181Z,7.13
2023-07-23T00:57:25.531Z,5.38
2023-07-23T01:00:26.887Z,5.90
2023-07-23T01:03:28.241Z,6.40
2023-07-23T01:06:29.617Z,5.13
2023-07-23T01:09:30.970Z,6.63
2023-07-23T01:12:32.308Z,5.20
2023-07-23T01:15:33.718Z,4.90
2023-07-23T01:18:35.127Z,5.47
2023-07-23T01:21:36.511Z,5.43
2023-07-23T01:24:37.884Z,8.70
2023-07-23T01:27:39.286Z,5.10
2023-07-23T01:30:40.643Z,5.95
2023-07-23T01:33:41.975Z,5.20
2023-07-23T01:36:43.364Z,5.15
2023-07-23T01:39:44.714Z,5.50
2023-07-23T01:42:46.055Z,5.80
2023-07-23T01:45:47.396Z,6.05
2023-07-23T01:48:48.749Z,6.40
2023-07-23T01:51:50.066Z,4.65
2023-07-23T01:54:51.399Z,4.33
2023-07-23T01:57:52.748Z,5.32
2023-07-23T02:00:54.111Z,7.00
2023-07-23T02:03:55.474Z,4.70
2023-07-23T02:06:56.817Z,4.00
2023-07-23T02:09:58.178Z,4.87
2023-07-23T02:12:59.542Z,7.28
2023-07-23T02:16:00.905Z,5.40
2023-07-23T02:19:02.226Z,5.50
2023-07-23T02:22:03.588Z,5.20
2023-07-23T02:25:04.954Z,7.30
2023-07-23T02:28:06.289Z,4.75
2023-07-23T02:31:07.656Z,5.03
2023-07-23T02:34:09.017Z,4.63
2023-07-23T02:37:10.374Z,4.07
2023-07-23T02:40:11.719Z,5.40
2023-07-23T02:43:13.050Z,4.95
2023-07-23T02:46:14.406Z,5.63
2023-07-23T02:49:15.752Z,5.38
2023-07-23T02:52:17.203Z,6.00
2023-07-23T02:55:18.529Z,4.50
2023-07-23T02:58:19.886Z,5.10
2023-07-23T03:01:21.410Z,6.60
2023-07-23T03:04:22.864Z,6.50
2023-07-23T03:07:24.179Z,5.57
2023-07-23T03:10:25.529Z,4.30
2023-07-23T03:13:26.866Z,4.63
2023-07-23T03:16:28.234Z,7.05
2023-07-23T03:19:29.580Z,5.90
2023-07-23T03:22:30.960Z,4.70
2023-07-23T03:25:32.309Z,6.10
2023-07-23T03:28:33.661Z,4.45
2023-07-23T03:31:35.003Z,7.00
2023-07-23T03:34:36.386Z,5.05
2023-07-23T03:37:37.734Z,4.47
2023-07-23T03:40:39.054Z,5.45
2023-07-23T03:43:40.395Z,5.97
2023-07-23T03:46:41.744Z,6.30
2023-07-23T03:49:43.115Z,5.22
2023-07-23T03:52:44.493Z,5.88
2023-07-23T03:55:45.867Z,7.85
2023-07-23T03:58:47.227Z,5.75
2023-07-23T04:01:48.624Z,5.03
2023-07-23T04:04:50.206Z,4.25
2023-07-23T04:07:51.525Z,4.22
2023-07-23T04:10:52.931Z,6.00
2023-07-23T04:13:54.291Z,4.07
2023-07-23T04:16:55.619Z,5.87
2023-07-23T04:19:56.990Z,4.63
2023-07-23T04:22:58.321Z,5.78
2023-07-23T04:25:59.682Z,5.50
2023-07-23T04:29:01.088Z,3.90
2023-07-23T04:32:02.426Z,4.60
2023-07-23T04:35:03.786Z,5.90
2023-07-23T04:38:05.180Z,5.30
2023-07-23T04:41:06.530Z,5.65
2023-07-23T04:44:07.837Z,4.70
2023-07-23T04:47:09.202Z,4.90
2023-07-23T04:50:10.533Z,4.93
2023-07-23T04:53:11.860Z,5.03
2023-07-23T04:56:13.198Z,5.60
2023-07-23T04:59:14.534Z,4.63
2023-07-23T05:02:15.866Z,5.13
2023-07-23T05:05:17.196Z,3.95
2023-07-23T05:08:18.551Z,5.75
2023-07-23T05:11:19.885Z,5.45
2023-07-23T05:14:21.230Z,3.78
2023-07-23T05:17:22.618Z,3.97
2023-07-23T05:20:23.974Z,4.50
2023-07-23T05:23:25.333Z,4.90
2023-07-23T05:26:26.714Z,4.75
2023-07-23T05:29:28.038Z,4.57
2023-07-23T05:32:29.414Z,4.43
2023-07-23T05:35:30.801Z,5.85
2023-07-23T05:38:32.150Z,4.30
2023-07-23T05:41:33.477Z,4.65
2023-07-23T05:44:34.818Z,4.03
2023-07-23T05:47:36.189Z,4.83
2023-07-23T05:50:37.558Z,5.88
2023-07-23T05:53:38.915Z,5.47
2023-07-23T05:56:40.264Z,6.35
2023-07-23T05:59:41.590Z,5.10
2023-07-23T06:02:42.957Z,4.67
2023-07-23T06:05:44.356Z,5.80
2023-07-23T06:08:45.936Z,3.90
2023-07-23T06:11:47.335Z,5.75
2023-07-23T06:14:48.743Z,5.47
2023-07-23T06:17:50.242Z,5.53
2023-07-23T06:20:51.622Z,5.85
2023-07-23T06:23:52.987Z,4.18
2023-07-23T06:26:54.346Z,5.80
2023-07-23T06:29:55.700Z,4.35
2023-07-23T06:32:57.068Z,4.60
2023-07-23T06:35:58.479Z,4.35
2023-07-23T06:38:59.847Z,4.80
2023-07-23T06:42:01.260Z,5.43
2023-07-23T06:45:02.667Z,5.53
2023-07-23T06:48:04.093Z,5.93
2023-07-23T06:51:05.473Z,4.80
2023-07-23T06:54:06.825Z,4.70
2023-07-23T06:57:08.174Z,4.90
2023-07-23T07:00:09.534Z,4.55
2023-07-23T07:03:11.005Z,5.33
2023-07-23T07:06:12.404Z,4.78
2023-07-23T07:09:13.754Z,5.32
2023-07-23T07:12:15.103Z,4.43
2023-07-23T07:15:16.437Z,4.35
2023-07-23T07:18:17.806Z,5.30
2023-07-23T07:21:19.152Z,5.07
2023-07-23T07:24:20.647Z,4.22
2023-07-23T07:27:22.134Z,5.25
2023-07-23T07:30:23.493Z,4.38
2023-07-23T07:33:24.853Z,4.97
2023-07-23T07:36:26.214Z,4.63
2023-07-23T07:39:27.560Z,4.03
2023-07-23T07:42:28.940Z,5.65
2023-07-23T07:45:30.283Z,4.65
2023-07-23T07:48:31.654Z,4.30
2023-07-23T07:51:33.014Z,4.35
2023-07-23T07:54:34.348Z,4.47
2023-07-23T07:57:35.721Z,4.07
2023-07-23T08:00:37.156Z,4.07
2023-07-23T08:03:38.669Z,4.33
2023-07-23T08:06:40.206Z,5.03
2023-07-23T08:09:41.534Z,4.25
2023-07-23T08:12:42.882Z,5.03
2023-07-23T08:15:44.212Z,4.18
2023-07-23T08:18:45.648Z,4.17
2023-07-23T08:21:47.018Z,5.00
2023-07-23T08:24:48.438Z,4.05
2023-07-23T08:27:49.848Z,5.35
2023-07-23T08:30:51.186Z,4.88
2023-07-23T08:33:52.572Z,4.40
2023-07-23T08:36:53.933Z,4.80
2023-07-23T08:39:55.284Z,3.92
2023-07-23T08:42:56.660Z,4.30
2023-07-23T08:45:58.150Z,3.90
2023-07-23T08:48:59.536Z,5.27
2023-07-23T08:52:00.879Z,4.22
2023-07-23T08:55:02.254Z,4.00
2023-07-23T08:58:03.598Z,5.88
2023-07-23T09:01:04.989Z,5.18
2023-07-23T09:04:06.364Z,4.63
2023-07-23T09:07:07.726Z,4.53
2023-07-23T09:10:09.094Z,4.07
2023-07-23T09:13:10.438Z,4.95
2023-07-23T09:16:11.801Z,4.85
2023-07-23T09:19:13.144Z,5.07
2023-07-23T09:22:14.484Z,4.82
2023-07-23T09:25:15.833Z,4.43
2023-07-23T09:28:17.182Z,5.10
2023-07-23T09:31:18.561Z,4.20
2023-07-23T09:34:19.959Z,4.47
2023-07-23T09:37:21.299Z,4.65
2023-07-23T09:40:22.665Z,4.20
2023-07-23T09:43:24.017Z,4.55
2023-07-23T09:46:25.355Z,5.18
2023-07-23T09:49:26.700Z,4.90
2023-07-23T09:52:28.031Z,4.15
2023-07-23T09:55:29.377Z,4.38
2023-07-23T09:58:30.750Z,4.82
2023-07-23T10:01:32.263Z,4.90
2023-07-23T10:04:33.867Z,5.07
2023-07-23T10:07:35.199Z,4.38
2023-07-23T10:10:36.537Z,4.72
2023-07-23T10:13:37.913Z,5.22
2023-07-23T10:16:39.464Z,4.70
2023-07-23T10:19:40.840Z,5.07
2023-07-23T10:22:42.235Z,4.75
2023-07-23T10:25:43.586Z,5.25
2023-07-23T10:28:44.928Z,4.82
2023-07-23T10:31:46.274Z,5.25
2023-07-23T10:34:47.644Z,4.03
2023-07-23T10:37:48.982Z,5.25
2023-07-23T10:40:50.334Z,4.22
2023-07-23T10:43:51.686Z,3.70
2023-07-23T10:46:53.058Z,4.38
2023-07-23T10:49:54.404Z,5.03
2023-07-23T10:52:55.748Z,4.95
2023-07-23T10:55:57.067Z,3.90
2023-07-23T10:58:58.426Z,4.30
2023-07-23T11:01:59.800Z,4.55
2023-07-23T11:05:01.233Z,4.97
2023-07-23T11:08:02.583Z,4.30
2023-07-23T11:11:03.978Z,4.70
2023-07-23T11:14:05.370Z,5.88
2023-07-23T11:17:06.683Z,4.35
2023-07-23T11:20:08.040Z,5.00
2023-07-23T11:23:09.365Z,4.75
2023-07-23T11:26:10.695Z,4.72
2023-07-23T11:29:12.030Z,4.68
2023-07-23T11:32:13.373Z,5.35
2023-07-23T11:35:14.735Z,3.80
2023-07-23T11:38:16.078Z,4.75
2023-07-23T11:41:23.075Z,4.82
2023-07-23T11:44:30.980Z,5.10
2023-07-23T11:47:32.335Z,4.65
2023-07-23T11:50:33.715Z,4.20
2023-07-23T11:53:35.210Z,4.40
2023-07-23T11:56:36.620Z,4.97
2023-07-23T11:59:37.948Z,5.18
2023-07-23T12:02:39.350Z,4.47
2023-07-23T12:05:40.711Z,4.70
2023-07-23T12:08:42.078Z,5.50
2023-07-23T12:11:43.627Z,5.03
2023-07-23T12:14:45.145Z,4.85
2023-07-23T12:17:46.557Z,5.13
2023-07-23T12:20:47.911Z,4.67
2023-07-23T12:23:49.256Z,5.05
2023-07-23T12:26:50.633Z,4.63
2023-07-23T12:29:52.003Z,4.40
2023-07-23T12:32:53.404Z,5.40
2023-07-23T12:35:54.735Z,4.30
2023-07-23T12:38:56.105Z,4.40
2023-07-23T12:41:57.476Z,4.63
2023-07-23T12:44:58.814Z,5.13
2023-07-23T12:48:00.231Z,5.20
2023-07-23T12:51:01.594Z,4.73
2023-07-23T12:54:02.979Z,4.97
2023-07-23T12:57:04.338Z,4.40
2023-07-23T13:00:05.704Z,5.13
2023-07-23T13:03:09.297Z,4.55
2023-07-23T13:06:11.821Z,4.90
2023-07-23T13:09:13.155Z,5.22
2023-07-23T13:12:14.499Z,5.32
2023-07-23T13:15:15.851Z,4.50
2023-07-23T13:18:17.188Z,4.90
2023-07-23T13:21:18.545Z,4.80
2023-07-23T13:24:19.924Z,4.88
2023-07-23T13:27:21.290Z,5.00
2023-07-23T13:30:22.652Z,4.35
2023-07-23T13:33:23.995Z,5.60
2023-07-23T13:36:25.348Z,4.73
2023-07-23T13:39:26.702Z,5.35
2023-07-23T13:42:28.039Z,4.85
2023-07-23T13:45:29.389Z,5.25
2023-07-23T13:48:30.761Z,4.88
2023-07-23T13:51:32.148Z,4.57
2023-07-23T13:54:33.497Z,4.90
2023-07-23T13:57:34.842Z,4.70
2023-07-23T14:00:36.262Z,5.28
2023-07-23T14:03:37.670Z,4.75
2023-07-23T14:06:39.035Z,5.30
2023-07-23T14:09:40.397Z,4.32
2023-07-23T14:12:41.740Z,5.22
2023-07-23T14:15:43.107Z,5.00
2023-07-23T14:18:44.455Z,4.93
2023-07-23T14:21:45.788Z,6.33
2023-07-23T14:24:47.184Z,5.35
2023-07-23T14:27:48.532Z,4.60
2023-07-23T14:30:51.791Z,4.00
2023-07-23T14:33:55.215Z,5.75
2023-07-23T14:36:56.562Z,5.50
2023-07-23T14:39:57.889Z,4.30
2023-07-23T14:42:59.225Z,4.47
2023-07-23T14:46:00.602Z,4.60
2023-07-23T14:49:01.966Z,4.55
2023-07-23T14:52:03.305Z,4.53
2023-07-23T14:55:04.655Z,5.22
2023-07-23T14:58:06.052Z,5.40
2023-07-23T15:01:07.444Z,4.15
2023-07-23T15:04:08.821Z,4.68
2023-07-23T15:07:10.244Z,4.43
2023-07-23T15:10:11.631Z,5.25
2023-07-23T15:13:13.022Z,5.70
2023-07-23T15:16:14.390Z,5.15
2023-07-23T15:19:15.767Z,4.00
2023-07-23T15:22:17.143Z,6.13
2023-07-23T15:25:19.166Z,6.10
2023-07-23T15:28:20.657Z,5.53
2023-07-23T15:31:22.002Z,6.38
2023-07-23T15:34:23.378Z,5.63
2023-07-23T15:37:24.745Z,4.40
2023-07-23T15:40:26.116Z,5.03
2023-07-23T15:43:27.456Z,5.93
2023-07-23T15:46:28.851Z,4.22
2023-07-23T15:49:30.198Z,5.20
2023-07-23T15:52:31.564Z,5.23
2023-07-23T15:55:32.900Z,6.72
2023-07-23T15:58:34.264Z,4.93
2023-07-23T16:01:35.666Z,7.32
2023-07-23T16:04:38.195Z,5.85
2023-07-23T16:07:39.706Z,5.47
2023-07-23T16:10:41.057Z,4.93
2023-07-23T16:13:42.396Z,5.75
2023-07-23T16:16:43.751Z,6.15
2023-07-23T16:19:45.082Z,4.82
2023-07-23T16:22:46.465Z,5.60
2023-07-23T16:25:47.801Z,5.50
2023-07-23T16:28:49.318Z,5.38
2023-07-23T16:31:50.722Z,6.28
2023-07-23T16:34:52.097Z,6.57
2023-07-23T16:37:53.445Z,4.30
2023-07-23T16:40:54.770Z,5.28
2023-07-23T16:43:56.127Z,4.20
2023-07-23T16:46:57.491Z,4.82
2023-07-23T16:49:58.875Z,4.93
2023-07-23T16:53:00.215Z,6.20
2023-07-23T16:56:01.557Z,4.60
2023-07-23T16:59:02.899Z,5.38
2023-07-23T17:02:04.291Z,5.53
2023-07-23T17:05:05.659Z,5.22
2023-07-23T17:08:06.982Z,4.63
2023-07-23T17:11:08.319Z,4.78
2023-07-23T17:14:09.655Z,4.95
2023-07-23T17:17:11.152Z,4.45
2023-07-23T17:20:12.635Z,4.30
2023-07-23T17:23:13.989Z,4.87
2023-07-23T17:26:15.355Z,4.85
2023-07-23T17:29:16.713Z,5.82
2023-07-23T17:32:18.079Z,6.93
2023-07-23T17:35:19.398Z,6.07
2023-07-23T17:38:20.807Z,5.83
2023-07-23T17:41:22.164Z,6.53
2023-07-23T17:44:23.496Z,5.30
2023-07-23T17:47:24.865Z,6.10
2023-07-23T17:50:26.201Z,5.57
2023-07-23T17:53:27.573Z,5.70
2023-07-23T17:56:29.134Z,5.20
2023-07-23T17:59:30.681Z,7.13
2023-07-23T18:02:32.078Z,5.78
2023-07-23T18:05:33.485Z,5.40
2023-07-23T18:08:34.844Z,5.80
2023-07-23T18:11:36.802Z,5.53
2023-07-23T18:14:38.233Z,5.05
2023-07-23T18:17:39.587Z,6.28
2023-07-23T18:20:40.961Z,6.25
2023-07-23T18:23:42.301Z,5.93
2023-07-23T18:26:43.670Z,7.55
2023-07-23T18:29:45.024Z,6.53
2023-07-23T18:32:46.392Z,7.43
2023-07-23T18:35:47.856Z,5.93
2023-07-23T18:38:49.202Z,5.37
2023-07-23T18:41:50.568Z,6.78
2023-07-23T18:44:51.917Z,6.75
2023-07-23T18:47:53.314Z,5.72
2023-07-23T18:50:54.707Z,7.40
2023-07-23T18:53:56.048Z,6.37
2023-07-23T18:56:57.393Z,6.45
2023-07-23T18:59:58.741Z,6.38
2023-07-23T19:03:00.122Z,5.82
2023-07-23T19:06:01.520Z,6.32
2023-07-23T19:09:02.878Z,6.10
2023-07-23T19:12:04.215Z,6.88
2023-07-23T19:15:05.568Z,5.88
2023-07-23T19:18:07.038Z,6.70
2023-07-23T19:21:08.460Z,7.88
2023-07-23T19:24:09.800Z,6.93
2023-07-23T19:27:11.167Z,7.53
2023-07-23T19:30:12.530Z,6.93
2023-07-23T19:33:13.878Z,7.40
2023-07-23T19:36:15.195Z,7.97
2023-07-23T19:39:16.541Z,6.53
2023-07-23T19:42:17.894Z,6.95
2023-07-23T19:45:19.236Z,7.18
2023-07-23T19:48:20.692Z,8.07
2023-07-23T19:51:22.044Z,6.72
2023-07-23T19:54:23.378Z,6.23
2023-07-23T19:57:24.741Z,7.60
2023-07-23T20:00:26.083Z,8.13
2023-07-23T20:03:27.492Z,7.60
2023-07-23T20:06:29.103Z,7.18
2023-07-23T20:09:30.677Z,7.27
2023-07-23T20:12:32.042Z,6.57
2023-07-23T20:15:33.407Z,6.00
2023-07-23T20:18:34.789Z,7.35
2023-07-23T20:21:43.860Z,7.55
2023-07-23T20:24:46.142Z,7.17
2023-07-23T20:27:47.575Z,6.90
2023-07-23T20:30:48.997Z,7.00
2023-07-23T20:33:50.396Z,6.45
2023-07-23T20:36:51.731Z,6.57
2023-07-23T20:39:53.075Z,7.73
2023-07-23T20:42:54.415Z,6.95
2023-07-23T20:45:55.784Z,7.25
2023-07-23T20:48:57.128Z,7.70
2023-07-23T20:51:58.471Z,7.20
2023-07-23T20:54:59.857Z,7.63
2023-07-23T20:58:01.194Z,7.78
2023-07-23T21:01:02.592Z,6.40
2023-07-23T21:04:04.037Z,7.82
2023-07-23T21:07:05.412Z,6.63
2023-07-23T21:10:06.772Z,8.80
2023-07-23T21:13:08.122Z,7.25
2023-07-23T21:16:09.495Z,6.80
2023-07-23T21:19:10.908Z,7.22
2023-07-23T21:22:12.231Z,6.95
2023-07-23T21:25:13.625Z,6.23
2023-07-23T21:28:14.944Z,6.07
2023-07-23T21:31:16.336Z,6.10
2023-07-23T21:34:17.698Z,7.95
2023-07-23T21:37:19.040Z,6.50
2023-07-23T21:40:20.384Z,7.03
2023-07-23T21:43:21.711Z,7.72
2023-07-23T21:46:23.103Z,6.72
2023-07-23T21:49:24.449Z,7.43
2023-07-23T21:52:25.946Z,6.45
2023-07-23T21:55:27.271Z,7.10
2023-07-23T21:58:28.626Z,6.93
2023-07-23T22:01:29.992Z,7.63
2023-07-23T22:04:31.349Z,6.72
2023-07-23T22:07:32.699Z,7.00
2023-07-23T22:10:34.058Z,8.03
2023-07-23T22:13:35.397Z,7.57
2023-07-23T22:16:36.749Z,7.88
2023-07-23T22:19:38.096Z,7.25
2023-07-23T22:22:39.448Z,7.00
2023-07-23T22:25:40.805Z,6.47
2023-07-23T22:28:42.162Z,7.55
2023-07-23T22:31:43.538Z,6.75
2023-07-23T22:34:44.904Z,6.35
2023-07-23T22:37:46.285Z,8.32
2023-07-23T22:40:47.635Z,6.83
2023-07-23T22:43:56.009Z,5.63
2023-07-23T22:46:58.209Z,7.20
2023-07-23T22:49:59.544Z,7.05
2023-07-23T22:53:00.907Z,7.68
2023-07-23T22:56:02.252Z,7.93
2023-07-23T22:59:03.638Z,7.95
2023-07-23T23:02:04.983Z,6.68
2023-07-23T23:05:06.325Z,6.78
2023-07-23T23:08:07.667Z,6.90
2023-07-23T23:11:09.026Z,7.30
2023-07-23T23:14:10.361Z,7.47
2023-07-23T23:17:11.736Z,6.70
2023-07-23T23:20:13.068Z,6.97
2023-07-23T23:23:14.435Z,6.88
2023-07-23T23:26:15.778Z,6.73
2023-07-23T23:29:17.103Z,6.78
2023-07-23T23:32:18.449Z,7.88
2023-07-23T23:35:19.847Z,8.23
2023-07-23T23:38:21.202Z,6.75
2023-07-23T23:41:22.575Z,6.23
2023-07-23T23:44:23.932Z,6.97
2023-07-23T23:47:25.318Z,7.05
2023-07-23T23:50:26.672Z,7.35
2023-07-23T23:53:28.117Z,7.18
2023-07-23T23:56:29.661Z,5.77
2023-07-23T23:59:31.198Z,6.55
